sensor_id;sensor_type;location;lat;lon;timestamp;P1;durP1;ratioP1;P2;durP2;ratioP2
34567;SDS011;20806;50.746;7.116;2022-10-16T00:00:36;0.10;;;0.10;;
34567;SDS011;20806;50.746;7.116;2022-10-16T00:03:03;0.20;;;0.20;;
34567;SDS011;20806;50.746;7.116;2022-10-16T00:05:29;0.20;;;0.20;;
34567;SDS011;20806;50.746;7.116;2022-10-16T00:07:55;0.50;;;0.20;;
34567;SDS011;20806;50.746;7.116;2022-10-16T00:10:21;0.10;;;0.10;;
34567;SDS011;20806;50.746;7.116;2022-10-16T00:12:47;0.20;;;0.20;;
34567;SDS011;20806;50.746;7.116;2022-10-16T00:15:13;0.10;;;0.10;;
34567;SDS011;20806;50.746;7.116;2022-10-16T00:17:39;0.60;;;0.10;;
34567;SDS011;20806;50.746;7.116;2022-10-16T00:20:05;0.30;;;0.20;;
34567;SDS011;20806;50.746;7.116;2022-10-16T00:22:32;0.10;;;0.10;;
34567;SDS011;20806;50.746;7.116;2022-10-16T00:24:58;0.30;;;0.15;;
34567;SDS011;20806;50.746;7.116;2022-10-16T00:27:24;0.20;;;0.20;;
34567;SDS011;20806;50.746;7.116;2022-10-16T00:29:50;0.10;;;0.10;;
34567;SDS011;20806;50.746;7.116;2022-10-16T00:32:17;0.20;;;0.20;;
34567;SDS011;20806;50.746;7.116;2022-10-16T00:34:43;0.30;;;0.20;;
34567;SDS011;20806;50.746;7.116;2022-10-16T00:37:09;0.13;;;0.13;;
34567;SDS011;20806;50.746;7.116;2022-10-16T00:39:35;0.20;;;0.20;;
34567;SDS011;20806;50.746;7.116;2022-10-16T00:42:01;0.20;;;0.20;;
34567;SDS011;20806;50.746;7.116;2022-10-16T00:44:41;0.20;;;0.20;;
34567;SDS011;20806;50.746;7.116;2022-10-16T00:47:09;0.80;;;0.30;;
34567;SDS011;20806;50.746;7.116;2022-10-16T00:49:35;0.30;;;0.30;;
34567;SDS011;20806;50.746;7.116;2022-10-16T00:52:01;0.30;;;0.30;;
34567;SDS011;20806;50.746;7.116;2022-10-16T00:54:28;0.20;;;0.20;;
34567;SDS011;20806;50.746;7.116;2022-10-16T00:56:55;0.33;;;0.30;;
34567;SDS011;20806;50.746;7.116;2022-10-16T00:59:26;0.30;;;0.30;;
34567;SDS011;20806;50.746;7.116;2022-10-16T01:01:53;0.80;;;0.30;;
34567;SDS011;20806;50.746;7.116;2022-10-16T01:04:19;0.30;;;0.30;;
34567;SDS011;20806;50.746;7.116;2022-10-16T01:14:24;0.30;;;0.30;;
34567;SDS011;20806;50.746;7.116;2022-10-16T01:16:54;0.30;;;0.30;;
34567;SDS011;20806;50.746;7.116;2022-10-16T01:21:52;0.40;;;0.30;;
34567;SDS011;20806;50.746;7.116;2022-10-16T01:24:33;0.20;;;0.20;;
34567;SDS011;20806;50.746;7.116;2022-10-16T01:27:07;0.28;;;0.28;;
34567;SDS011;20806;50.746;7.116;2022-10-16T01:32:16;0.70;;;0.30;;
34567;SDS011;20806;50.746;7.116;2022-10-16T01:34:51;0.20;;;0.20;;
34567;SDS011;20806;50.746;7.116;2022-10-16T01:37:21;0.25;;;0.20;;
34567;SDS011;20806;50.746;7.116;2022-10-16T01:39:48;0.20;;;0.20;;
34567;SDS011;20806;50.746;7.116;2022-10-16T01:42:19;0.52;;;0.30;;
34567;SDS011;20806;50.746;7.116;2022-10-16T01:44:46;0.30;;;0.30;;
34567;SDS011;20806;50.746;7.116;2022-10-16T01:47:13;0.15;;;0.15;;
34567;SDS011;20806;50.746;7.116;2022-10-16T01:49:40;0.20;;;0.20;;
34567;SDS011;20806;50.746;7.116;2022-10-16T01:52:08;0.30;;;0.30;;
34567;SDS011;20806;50.746;7.116;2022-10-16T01:54:35;0.25;;;0.25;;
34567;SDS011;20806;50.746;7.116;2022-10-16T01:57:03;0.20;;;0.20;;
34567;SDS011;20806;50.746;7.116;2022-10-16T01:59:31;0.30;;;0.30;;
34567;SDS011;20806;50.746;7.116;2022-10-16T02:02:01;0.30;;;0.30;;
34567;SDS011;20806;50.746;7.116;2022-10-16T02:04:34;0.57;;;0.30;;
34567;SDS011;20806;50.746;7.116;2022-10-16T02:07:02;0.20;;;0.20;;
34567;SDS011;20806;50.746;7.116;2022-10-16T02:09:29;1.10;;;0.30;;
34567;SDS011;20806;50.746;7.116;2022-10-16T02:11:55;0.30;;;0.30;;
34567;SDS011;20806;50.746;7.116;2022-10-16T02:14:22;0.22;;;0.22;;
34567;SDS011;20806;50.746;7.116;2022-10-16T02:16:49;0.22;;;0.20;;
34567;SDS011;20806;50.746;7.116;2022-10-16T02:19:16;0.65;;;0.20;;
34567;SDS011;20806;50.746;7.116;2022-10-16T02:21:55;0.30;;;0.30;;
34567;SDS011;20806;50.746;7.116;2022-10-16T02:24:38;0.20;;;0.20;;
34567;SDS011;20806;50.746;7.116;2022-10-16T02:27:17;1.20;;;0.30;;
34567;SDS011;20806;50.746;7.116;2022-10-16T02:29:49;0.28;;;0.20;;
34567;SDS011;20806;50.746;7.116;2022-10-16T02:32:19;0.60;;;0.20;;
34567;SDS011;20806;50.746;7.116;2022-10-16T02:34:47;0.30;;;0.20;;
34567;SDS011;20806;50.746;7.116;2022-10-16T02:37:14;0.20;;;0.20;;
34567;SDS011;20806;50.746;7.116;2022-10-16T02:39:40;0.20;;;0.20;;
34567;SDS011;20806;50.746;7.116;2022-10-16T02:42:11;0.30;;;0.20;;
34567;SDS011;20806;50.746;7.116;2022-10-16T02:44:37;0.30;;;0.20;;
34567;SDS011;20806;50.746;7.116;2022-10-16T02:47:03;0.20;;;0.20;;
34567;SDS011;20806;50.746;7.116;2022-10-16T02:49:29;0.20;;;0.20;;
34567;SDS011;20806;50.746;7.116;2022-10-16T02:51:56;0.20;;;0.20;;
34567;SDS011;20806;50.746;7.116;2022-10-16T02:54:22;0.20;;;0.20;;
34567;SDS011;20806;50.746;7.116;2022-10-16T02:56:48;0.70;;;0.20;;
34567;SDS011;20806;50.746;7.116;2022-10-16T02:59:14;0.17;;;0.10;;
34567;SDS011;20806;50.746;7.116;2022-10-16T03:01:40;0.20;;;0.20;;
34567;SDS011;20806;50.746;7.116;2022-10-16T03:04:06;0.10;;;0.10;;
34567;SDS011;20806;50.746;7.116;2022-10-16T03:06:32;0.20;;;0.20;;
34567;SDS011;20806;50.746;7.116;2022-10-16T03:08:58;0.20;;;0.20;;
34567;SDS011;20806;50.746;7.116;2022-10-16T03:11:24;0.30;;;0.20;;
34567;SDS011;20806;50.746;7.116;2022-10-16T03:13:51;0.90;;;0.20;;
34567;SDS011;20806;50.746;7.116;2022-10-16T03:16:17;0.40;;;0.20;;
34567;SDS011;20806;50.746;7.116;2022-10-16T03:18:43;0.30;;;0.10;;
34567;SDS011;20806;50.746;7.116;2022-10-16T03:21:13;0.10;;;0.10;;
34567;SDS011;20806;50.746;7.116;2022-10-16T03:23:39;0.38;;;0.20;;
34567;SDS011;20806;50.746;7.116;2022-10-16T03:26:05;0.10;;;0.10;;
34567;SDS011;20806;50.746;7.116;2022-10-16T03:28:31;0.10;;;0.10;;
34567;SDS011;20806;50.746;7.116;2022-10-16T03:30:57;0.45;;;0.13;;
34567;SDS011;20806;50.746;7.116;2022-10-16T03:33:23;0.17;;;0.10;;
34567;SDS011;20806;50.746;7.116;2022-10-16T03:35:53;0.80;;;0.10;;
34567;SDS011;20806;50.746;7.116;2022-10-16T03:38:19;0.13;;;0.10;;
34567;SDS011;20806;50.746;7.116;2022-10-16T03:40:46;0.70;;;0.13;;
34567;SDS011;20806;50.746;7.116;2022-10-16T03:43:12;0.10;;;0.10;;
34567;SDS011;20806;50.746;7.116;2022-10-16T03:45:38;0.10;;;0.10;;
34567;SDS011;20806;50.746;7.116;2022-10-16T03:48:04;0.20;;;0.10;;
34567;SDS011;20806;50.746;7.116;2022-10-16T03:50:30;0.32;;;0.10;;
34567;SDS011;20806;50.746;7.116;2022-10-16T03:52:56;0.10;;;0.10;;
34567;SDS011;20806;50.746;7.116;2022-10-16T03:55:22;0.10;;;0.10;;
34567;SDS011;20806;50.746;7.116;2022-10-16T03:57:48;0.20;;;0.10;;
34567;SDS011;20806;50.746;7.116;2022-10-16T04:00:14;0.10;;;0.10;;
34567;SDS011;20806;50.746;7.116;2022-10-16T04:02:40;0.10;;;0.10;;
34567;SDS011;20806;50.746;7.116;2022-10-16T04:05:07;0.08;;;0.08;;
34567;SDS011;20806;50.746;7.116;2022-10-16T04:07:33;0.10;;;0.10;;
34567;SDS011;20806;50.746;7.116;2022-10-16T04:09:59;0.00;;;0.00;;
34567;SDS011;20806;50.746;7.116;2022-10-16T04:12:25;0.10;;;0.10;;
34567;SDS011;20806;50.746;7.116;2022-10-16T04:14:51;0.10;;;0.10;;
34567;SDS011;20806;50.746;7.116;2022-10-16T04:17:17;0.10;;;0.10;;
34567;SDS011;20806;50.746;7.116;2022-10-16T04:19:43;0.40;;;0.10;;
34567;SDS011;20806;50.746;7.116;2022-10-16T04:22:09;0.00;;;0.00;;
34567;SDS011;20806;50.746;7.116;2022-10-16T04:24:35;0.00;;;0.00;;
34567;SDS011;20806;50.746;7.116;2022-10-16T04:27:01;0.10;;;0.10;;
34567;SDS011;20806;50.746;7.116;2022-10-16T04:29:27;0.20;;;0.10;;
34567;SDS011;20806;50.746;7.116;2022-10-16T04:31:53;0.10;;;0.10;;
34567;SDS011;20806;50.746;7.116;2022-10-16T04:34:20;0.10;;;0.10;;
34567;SDS011;20806;50.746;7.116;2022-10-16T04:36:48;0.10;;;0.10;;
34567;SDS011;20806;50.746;7.116;2022-10-16T04:39:15;0.30;;;0.10;;
34567;SDS011;20806;50.746;7.116;2022-10-16T04:41:41;0.10;;;0.10;;
34567;SDS011;20806;50.746;7.116;2022-10-16T04:44:07;0.10;;;0.10;;
34567;SDS011;20806;50.746;7.116;2022-10-16T04:46:33;0.70;;;0.30;;
34567;SDS011;20806;50.746;7.116;2022-10-16T04:48:59;0.90;;;0.10;;
34567;SDS011;20806;50.746;7.116;2022-10-16T04:51:25;0.08;;;0.08;;
34567;SDS011;20806;50.746;7.116;2022-10-16T04:53:52;0.10;;;0.10;;
34567;SDS011;20806;50.746;7.116;2022-10-16T04:56:19;0.20;;;0.10;;
34567;SDS011;20806;50.746;7.116;2022-10-16T04:58:46;0.10;;;0.10;;
34567;SDS011;20806;50.746;7.116;2022-10-16T05:01:12;0.00;;;0.00;;
34567;SDS011;20806;50.746;7.116;2022-10-16T05:03:38;0.20;;;0.00;;
34567;SDS011;20806;50.746;7.116;2022-10-16T05:06:05;0.10;;;0.10;;
34567;SDS011;20806;50.746;7.116;2022-10-16T05:08:31;0.20;;;0.10;;
34567;SDS011;20806;50.746;7.116;2022-10-16T05:10:57;0.10;;;0.10;;
34567;SDS011;20806;50.746;7.116;2022-10-16T05:13:23;0.08;;;0.08;;
34567;SDS011;20806;50.746;7.116;2022-10-16T05:15:49;0.10;;;0.10;;
34567;SDS011;20806;50.746;7.116;2022-10-16T05:18:15;0.20;;;0.10;;
34567;SDS011;20806;50.746;7.116;2022-10-16T05:20:41;0.10;;;0.10;;
34567;SDS011;20806;50.746;7.116;2022-10-16T05:23:07;0.20;;;0.10;;
34567;SDS011;20806;50.746;7.116;2022-10-16T05:25:35;0.10;;;0.10;;
34567;SDS011;20806;50.746;7.116;2022-10-16T05:28:01;0.30;;;0.10;;
34567;SDS011;20806;50.746;7.116;2022-10-16T05:30:27;1.00;;;0.20;;
34567;SDS011;20806;50.746;7.116;2022-10-16T05:32:53;0.10;;;0.10;;
34567;SDS011;20806;50.746;7.116;2022-10-16T05:35:19;0.30;;;0.20;;
34567;SDS011;20806;50.746;7.116;2022-10-16T05:37:46;0.10;;;0.10;;
34567;SDS011;20806;50.746;7.116;2022-10-16T05:40:12;0.20;;;0.20;;
34567;SDS011;20806;50.746;7.116;2022-10-16T05:42:39;0.20;;;0.10;;
34567;SDS011;20806;50.746;7.116;2022-10-16T05:45:06;0.10;;;0.10;;
34567;SDS011;20806;50.746;7.116;2022-10-16T05:47:32;0.10;;;0.10;;
34567;SDS011;20806;50.746;7.116;2022-10-16T05:49:58;0.20;;;0.20;;
34567;SDS011;20806;50.746;7.116;2022-10-16T05:52:24;0.15;;;0.15;;
34567;SDS011;20806;50.746;7.116;2022-10-16T05:54:52;0.20;;;0.20;;
34567;SDS011;20806;50.746;7.116;2022-10-16T05:57:18;0.10;;;0.10;;
34567;SDS011;20806;50.746;7.116;2022-10-16T05:59:44;0.20;;;0.20;;
34567;SDS011;20806;50.746;7.116;2022-10-16T06:02:13;0.20;;;0.20;;
34567;SDS011;20806;50.746;7.116;2022-10-16T06:04:39;0.20;;;0.20;;
34567;SDS011;20806;50.746;7.116;2022-10-16T06:07:05;0.20;;;0.20;;
34567;SDS011;20806;50.746;7.116;2022-10-16T06:09:31;0.20;;;0.17;;
34567;SDS011;20806;50.746;7.116;2022-10-16T06:11:58;0.10;;;0.10;;
34567;SDS011;20806;50.746;7.116;2022-10-16T06:14:24;0.20;;;0.20;;
34567;SDS011;20806;50.746;7.116;2022-10-16T06:16:50;0.20;;;0.20;;
34567;SDS011;20806;50.746;7.116;2022-10-16T06:19:16;0.10;;;0.10;;
34567;SDS011;20806;50.746;7.116;2022-10-16T06:21:43;0.10;;;0.10;;
34567;SDS011;20806;50.746;7.116;2022-10-16T06:24:09;0.30;;;0.20;;
34567;SDS011;20806;50.746;7.116;2022-10-16T06:26:35;0.13;;;0.13;;
34567;SDS011;20806;50.746;7.116;2022-10-16T06:29:01;0.20;;;0.20;;
34567;SDS011;20806;50.746;7.116;2022-10-16T06:31:28;0.10;;;0.10;;
34567;SDS011;20806;50.746;7.116;2022-10-16T06:33:56;0.20;;;0.20;;
34567;SDS011;20806;50.746;7.116;2022-10-16T06:36:22;0.10;;;0.10;;
34567;SDS011;20806;50.746;7.116;2022-10-16T06:38:49;0.10;;;0.10;;
34567;SDS011;20806;50.746;7.116;2022-10-16T06:41:16;0.10;;;0.10;;
34567;SDS011;20806;50.746;7.116;2022-10-16T06:43:43;0.10;;;0.10;;
34567;SDS011;20806;50.746;7.116;2022-10-16T06:46:11;0.10;;;0.10;;
34567;SDS011;20806;50.746;7.116;2022-10-16T06:48:37;0.10;;;0.10;;
34567;SDS011;20806;50.746;7.116;2022-10-16T06:51:08;0.10;;;0.10;;
34567;SDS011;20806;50.746;7.116;2022-10-16T06:53:36;0.10;;;0.10;;
34567;SDS011;20806;50.746;7.116;2022-10-16T06:56:09;0.20;;;0.10;;
34567;SDS011;20806;50.746;7.116;2022-10-16T06:58:35;0.10;;;0.10;;
34567;SDS011;20806;50.746;7.116;2022-10-16T07:01:01;0.20;;;0.10;;
34567;SDS011;20806;50.746;7.116;2022-10-16T07:03:27;0.60;;;0.10;;
34567;SDS011;20806;50.746;7.116;2022-10-16T07:05:53;0.10;;;0.10;;
34567;SDS011;20806;50.746;7.116;2022-10-16T07:08:19;0.25;;;0.10;;
34567;SDS011;20806;50.746;7.116;2022-10-16T07:10:45;0.10;;;0.10;;
34567;SDS011;20806;50.746;7.116;2022-10-16T07:13:11;1.55;;;0.15;;
34567;SDS011;20806;50.746;7.116;2022-10-16T07:15:40;0.63;;;0.10;;
34567;SDS011;20806;50.746;7.116;2022-10-16T07:18:07;0.10;;;0.10;;
34567;SDS011;20806;50.746;7.116;2022-10-16T07:20:33;0.57;;;0.17;;
34567;SDS011;20806;50.746;7.116;2022-10-16T07:22:59;0.10;;;0.10;;
34567;SDS011;20806;50.746;7.116;2022-10-16T07:25:25;0.10;;;0.10;;
34567;SDS011;20806;50.746;7.116;2022-10-16T07:27:51;0.20;;;0.20;;
34567;SDS011;20806;50.746;7.116;2022-10-16T07:30:20;0.10;;;0.10;;
34567;SDS011;20806;50.746;7.116;2022-10-16T07:32:46;0.10;;;0.10;;
34567;SDS011;20806;50.746;7.116;2022-10-16T07:35:12;0.10;;;0.10;;
34567;SDS011;20806;50.746;7.116;2022-10-16T07:37:38;0.17;;;0.17;;
34567;SDS011;20806;50.746;7.116;2022-10-16T07:40:04;0.10;;;0.10;;
34567;SDS011;20806;50.746;7.116;2022-10-16T07:42:30;0.20;;;0.20;;
34567;SDS011;20806;50.746;7.116;2022-10-16T07:44:56;0.10;;;0.10;;
34567;SDS011;20806;50.746;7.116;2022-10-16T07:47:22;0.20;;;0.20;;
34567;SDS011;20806;50.746;7.116;2022-10-16T07:49:48;0.10;;;0.10;;
34567;SDS011;20806;50.746;7.116;2022-10-16T07:52:14;0.20;;;0.20;;
34567;SDS011;20806;50.746;7.116;2022-10-16T07:54:40;0.20;;;0.20;;
34567;SDS011;20806;50.746;7.116;2022-10-16T07:57:06;0.20;;;0.20;;
34567;SDS011;20806;50.746;7.116;2022-10-16T07:59:32;0.20;;;0.20;;
34567;SDS011;20806;50.746;7.116;2022-10-16T08:01:58;0.20;;;0.20;;
34567;SDS011;20806;50.746;7.116;2022-10-16T08:04:24;0.20;;;0.20;;
34567;SDS011;20806;50.746;7.116;2022-10-16T08:06:50;0.20;;;0.20;;
34567;SDS011;20806;50.746;7.116;2022-10-16T08:09:16;0.10;;;0.10;;
34567;SDS011;20806;50.746;7.116;2022-10-16T08:11:42;0.20;;;0.20;;
34567;SDS011;20806;50.746;7.116;2022-10-16T08:14:08;0.10;;;0.10;;
34567;SDS011;20806;50.746;7.116;2022-10-16T08:16:34;0.10;;;0.10;;
34567;SDS011;20806;50.746;7.116;2022-10-16T08:19:00;0.20;;;0.20;;
34567;SDS011;20806;50.746;7.116;2022-10-16T08:21:26;0.10;;;0.10;;
34567;SDS011;20806;50.746;7.116;2022-10-16T08:23:53;0.10;;;0.10;;
34567;SDS011;20806;50.746;7.116;2022-10-16T08:26:20;0.20;;;0.20;;
34567;SDS011;20806;50.746;7.116;2022-10-16T08:28:48;0.30;;;0.10;;
34567;SDS011;20806;50.746;7.116;2022-10-16T08:31:15;0.10;;;0.10;;
34567;SDS011;20806;50.746;7.116;2022-10-16T08:33:42;0.20;;;0.20;;
34567;SDS011;20806;50.746;7.116;2022-10-16T08:36:09;0.32;;;0.20;;
34567;SDS011;20806;50.746;7.116;2022-10-16T08:38:35;0.10;;;0.10;;
34567;SDS011;20806;50.746;7.116;2022-10-16T08:41:16;0.30;;;0.20;;
34567;SDS011;20806;50.746;7.116;2022-10-16T08:43:46;0.60;;;0.10;;
34567;SDS011;20806;50.746;7.116;2022-10-16T08:46:21;0.25;;;0.20;;
34567;SDS011;20806;50.746;7.116;2022-10-16T08:48:56;0.10;;;0.10;;
34567;SDS011;20806;50.746;7.116;2022-10-16T08:51:24;0.10;;;0.10;;
34567;SDS011;20806;50.746;7.116;2022-10-16T08:56:19;0.10;;;0.10;;
34567;SDS011;20806;50.746;7.116;2022-10-16T08:58:46;0.20;;;0.20;;
34567;SDS011;20806;50.746;7.116;2022-10-16T09:01:13;0.30;;;0.20;;
34567;SDS011;20806;50.746;7.116;2022-10-16T09:04:00;0.22;;;0.20;;
34567;SDS011;20806;50.746;7.116;2022-10-16T09:16:57;0.10;;;0.10;;
34567;SDS011;20806;50.746;7.116;2022-10-16T09:19:27;0.10;;;0.10;;
34567;SDS011;20806;50.746;7.116;2022-10-16T09:21:54;0.10;;;0.10;;
34567;SDS011;20806;50.746;7.116;2022-10-16T09:24:21;0.43;;;0.17;;
34567;SDS011;20806;50.746;7.116;2022-10-16T09:26:49;0.10;;;0.10;;
34567;SDS011;20806;50.746;7.116;2022-10-16T09:29:16;0.20;;;0.10;;
34567;SDS011;20806;50.746;7.116;2022-10-16T09:31:44;0.20;;;0.10;;
34567;SDS011;20806;50.746;7.116;2022-10-16T09:36:44;0.00;;;0.00;;
34567;SDS011;20806;50.746;7.116;2022-10-16T09:39:10;0.17;;;0.10;;
34567;SDS011;20806;50.746;7.116;2022-10-16T09:41:37;0.10;;;0.10;;
34567;SDS011;20806;50.746;7.116;2022-10-16T09:44:06;0.20;;;0.10;;
34567;SDS011;20806;50.746;7.116;2022-10-16T09:46:41;0.20;;;0.10;;
34567;SDS011;20806;50.746;7.116;2022-10-16T09:49:21;0.20;;;0.10;;
34567;SDS011;20806;50.746;7.116;2022-10-16T09:51:47;0.10;;;0.10;;
34567;SDS011;20806;50.746;7.116;2022-10-16T09:54:14;0.10;;;0.10;;
34567;SDS011;20806;50.746;7.116;2022-10-16T09:56:40;0.10;;;0.10;;
34567;SDS011;20806;50.746;7.116;2022-10-16T09:59:14;0.60;;;0.10;;
34567;SDS011;20806;50.746;7.116;2022-10-16T10:01:44;0.00;;;0.00;;
34567;SDS011;20806;50.746;7.116;2022-10-16T10:04:11;0.10;;;0.10;;
34567;SDS011;20806;50.746;7.116;2022-10-16T10:06:43;0.30;;;0.10;;
34567;SDS011;20806;50.746;7.116;2022-10-16T10:09:20;0.33;;;0.10;;
34567;SDS011;20806;50.746;7.116;2022-10-16T10:11:48;0.10;;;0.10;;
34567;SDS011;20806;50.746;7.116;2022-10-16T10:14:18;0.10;;;0.10;;
34567;SDS011;20806;50.746;7.116;2022-10-16T10:16:45;0.10;;;0.10;;
34567;SDS011;20806;50.746;7.116;2022-10-16T10:19:30;0.10;;;0.10;;
34567;SDS011;20806;50.746;7.116;2022-10-16T10:22:00;0.00;;;0.00;;
34567;SDS011;20806;50.746;7.116;2022-10-16T10:24:27;1.10;;;0.10;;
34567;SDS011;20806;50.746;7.116;2022-10-16T10:29:35;0.20;;;0.10;;
34567;SDS011;20806;50.746;7.116;2022-10-16T10:34:52;0.00;;;0.00;;
34567;SDS011;20806;50.746;7.116;2022-10-16T10:40:16;0.10;;;0.10;;
34567;SDS011;20806;50.746;7.116;2022-10-16T10:56:13;0.00;;;0.00;;
34567;SDS011;20806;50.746;7.116;2022-10-16T10:58:51;0.10;;;0.00;;
34567;SDS011;20806;50.746;7.116;2022-10-16T11:01:14;0.00;;;0.00;;
34567;SDS011;20806;50.746;7.116;2022-10-16T11:06:20;0.10;;;0.00;;
34567;SDS011;20806;50.746;7.116;2022-10-16T11:08:53;0.00;;;0.00;;
34567;SDS011;20806;50.746;7.116;2022-10-16T11:11:25;0.00;;;0.00;;
34567;SDS011;20806;50.746;7.116;2022-10-16T11:13:55;0.10;;;0.10;;
34567;SDS011;20806;50.746;7.116;2022-10-16T11:16:27;0.13;;;0.10;;
34567;SDS011;20806;50.746;7.116;2022-10-16T11:21:20;0.13;;;0.10;;
34567;SDS011;20806;50.746;7.116;2022-10-16T11:26:17;0.10;;;0.00;;
34567;SDS011;20806;50.746;7.116;2022-10-16T11:28:48;0.00;;;0.00;;
34567;SDS011;20806;50.746;7.116;2022-10-16T11:31:17;0.08;;;0.08;;
34567;SDS011;20806;50.746;7.116;2022-10-16T11:36:33;0.00;;;0.00;;
34567;SDS011;20806;50.746;7.116;2022-10-16T11:41:49;0.00;;;0.00;;
34567;SDS011;20806;50.746;7.116;2022-10-16T11:49:37;0.03;;;0.00;;
34567;SDS011;20806;50.746;7.116;2022-10-16T11:52:11;0.00;;;0.00;;
34567;SDS011;20806;50.746;7.116;2022-10-16T11:54:43;0.00;;;0.00;;
34567;SDS011;20806;50.746;7.116;2022-10-16T11:57:13;0.50;;;0.00;;
34567;SDS011;20806;50.746;7.116;2022-10-16T11:59:52;0.00;;;0.00;;
34567;SDS011;20806;50.746;7.116;2022-10-16T12:02:33;0.00;;;0.00;;
34567;SDS011;20806;50.746;7.116;2022-10-16T12:07:41;0.00;;;0.00;;
34567;SDS011;20806;50.746;7.116;2022-10-16T12:10:09;0.10;;;0.10;;
34567;SDS011;20806;50.746;7.116;2022-10-16T12:15:03;0.00;;;0.00;;
34567;SDS011;20806;50.746;7.116;2022-10-16T12:17:43;0.00;;;0.00;;
34567;SDS011;20806;50.746;7.116;2022-10-16T12:22:48;0.10;;;0.00;;
34567;SDS011;20806;50.746;7.116;2022-10-16T12:25:22;0.00;;;0.00;;
34567;SDS011;20806;50.746;7.116;2022-10-16T12:28:22;0.00;;;0.00;;
34567;SDS011;20806;50.746;7.116;2022-10-16T12:30:41;0.05;;;0.00;;
34567;SDS011;20806;50.746;7.116;2022-10-16T12:33:25;0.00;;;0.00;;
34567;SDS011;20806;50.746;7.116;2022-10-16T12:35:52;0.20;;;0.00;;
34567;SDS011;20806;50.746;7.116;2022-10-16T12:40:44;0.00;;;0.00;;
34567;SDS011;20806;50.746;7.116;2022-10-16T12:46:04;0.08;;;0.00;;
34567;SDS011;20806;50.746;7.116;2022-10-16T12:48:32;0.00;;;0.00;;
34567;SDS011;20806;50.746;7.116;2022-10-16T12:51:09;0.00;;;0.00;;
34567;SDS011;20806;50.746;7.116;2022-10-16T12:53:35;0.10;;;0.00;;
34567;SDS011;20806;50.746;7.116;2022-10-16T12:56:19;0.00;;;0.00;;
34567;SDS011;20806;50.746;7.116;2022-10-16T12:58:51;0.00;;;0.00;;
34567;SDS011;20806;50.746;7.116;2022-10-16T13:14:42;0.00;;;0.00;;
34567;SDS011;20806;50.746;7.116;2022-10-16T13:19:53;0.00;;;0.00;;
34567;SDS011;20806;50.746;7.116;2022-10-16T13:22:24;0.10;;;0.03;;
34567;SDS011;20806;50.746;7.116;2022-10-16T13:25:02;0.00;;;0.00;;
34567;SDS011;20806;50.746;7.116;2022-10-16T13:30:01;0.00;;;0.00;;
34567;SDS011;20806;50.746;7.116;2022-10-16T13:32:27;0.10;;;0.00;;
34567;SDS011;20806;50.746;7.116;2022-10-16T13:34:54;0.20;;;0.10;;
34567;SDS011;20806;50.746;7.116;2022-10-16T13:37:21;0.40;;;0.00;;
34567;SDS011;20806;50.746;7.116;2022-10-16T13:39:48;0.20;;;0.03;;
34567;SDS011;20806;50.746;7.116;2022-10-16T13:42:25;0.10;;;0.00;;
34567;SDS011;20806;50.746;7.116;2022-10-16T13:44:52;0.10;;;0.00;;
34567;SDS011;20806;50.746;7.116;2022-10-16T13:47:20;0.00;;;0.00;;
34567;SDS011;20806;50.746;7.116;2022-10-16T13:49:46;0.10;;;0.00;;
34567;SDS011;20806;50.746;7.116;2022-10-16T13:52:19;0.10;;;0.00;;
34567;SDS011;20806;50.746;7.116;2022-10-16T13:54:46;0.10;;;0.00;;
34567;SDS011;20806;50.746;7.116;2022-10-16T13:57:13;0.40;;;0.10;;
34567;SDS011;20806;50.746;7.116;2022-10-16T13:59:39;0.00;;;0.00;;
34567;SDS011;20806;50.746;7.116;2022-10-16T14:04:44;0.10;;;0.10;;
34567;SDS011;20806;50.746;7.116;2022-10-16T14:07:14;0.00;;;0.00;;
34567;SDS011;20806;50.746;7.116;2022-10-16T14:09:47;0.00;;;0.00;;
34567;SDS011;20806;50.746;7.116;2022-10-16T14:12:13;0.00;;;0.00;;
34567;SDS011;20806;50.746;7.116;2022-10-16T14:14:46;0.00;;;0.00;;
34567;SDS011;20806;50.746;7.116;2022-10-16T14:17:13;0.00;;;0.00;;
34567;SDS011;20806;50.746;7.116;2022-10-16T14:19:39;0.00;;;0.00;;
34567;SDS011;20806;50.746;7.116;2022-10-16T14:22:17;0.03;;;0.00;;
34567;SDS011;20806;50.746;7.116;2022-10-16T14:24:46;0.00;;;0.00;;
34567;SDS011;20806;50.746;7.116;2022-10-16T14:32:33;0.00;;;0.00;;
34567;SDS011;20806;50.746;7.116;2022-10-16T14:34:59;0.20;;;0.10;;
34567;SDS011;20806;50.746;7.116;2022-10-16T14:37:27;0.10;;;0.10;;
34567;SDS011;20806;50.746;7.116;2022-10-16T14:39:53;0.20;;;0.00;;
34567;SDS011;20806;50.746;7.116;2022-10-16T14:42:20;0.10;;;0.10;;
34567;SDS011;20806;50.746;7.116;2022-10-16T14:44:49;0.00;;;0.00;;
34567;SDS011;20806;50.746;7.116;2022-10-16T14:47:20;0.00;;;0.00;;
34567;SDS011;20806;50.746;7.116;2022-10-16T14:49:55;0.00;;;0.00;;
34567;SDS011;20806;50.746;7.116;2022-10-16T14:52:26;0.10;;;0.10;;
34567;SDS011;20806;50.746;7.116;2022-10-16T14:54:56;0.10;;;0.10;;
34567;SDS011;20806;50.746;7.116;2022-10-16T14:57:26;0.10;;;0.10;;
34567;SDS011;20806;50.746;7.116;2022-10-16T14:59:56;0.00;;;0.00;;
34567;SDS011;20806;50.746;7.116;2022-10-16T15:02:32;0.10;;;0.10;;
34567;SDS011;20806;50.746;7.116;2022-10-16T15:05:04;0.00;;;0.00;;
34567;SDS011;20806;50.746;7.116;2022-10-16T15:07:31;0.10;;;0.10;;
34567;SDS011;20806;50.746;7.116;2022-10-16T15:09:57;0.00;;;0.00;;
34567;SDS011;20806;50.746;7.116;2022-10-16T15:12:23;0.00;;;0.00;;
34567;SDS011;20806;50.746;7.116;2022-10-16T15:14:49;0.10;;;0.00;;
34567;SDS011;20806;50.746;7.116;2022-10-16T15:17:15;0.10;;;0.00;;
34567;SDS011;20806;50.746;7.116;2022-10-16T15:19:41;0.10;;;0.10;;
34567;SDS011;20806;50.746;7.116;2022-10-16T15:22:09;0.10;;;0.00;;
34567;SDS011;20806;50.746;7.116;2022-10-16T15:24:35;0.30;;;0.10;;
34567;SDS011;20806;50.746;7.116;2022-10-16T15:27:01;0.10;;;0.10;;
34567;SDS011;20806;50.746;7.116;2022-10-16T15:29:27;0.10;;;0.10;;
34567;SDS011;20806;50.746;7.116;2022-10-16T15:31:53;0.20;;;0.10;;
34567;SDS011;20806;50.746;7.116;2022-10-16T15:34:19;0.10;;;0.00;;
34567;SDS011;20806;50.746;7.116;2022-10-16T15:36:45;0.50;;;0.10;;
34567;SDS011;20806;50.746;7.116;2022-10-16T15:39:12;0.20;;;0.00;;
34567;SDS011;20806;50.746;7.116;2022-10-16T15:41:38;0.00;;;0.00;;
34567;SDS011;20806;50.746;7.116;2022-10-16T15:44:05;0.00;;;0.00;;
34567;SDS011;20806;50.746;7.116;2022-10-16T15:46:31;0.10;;;0.10;;
34567;SDS011;20806;50.746;7.116;2022-10-16T15:48:58;0.20;;;0.00;;
34567;SDS011;20806;50.746;7.116;2022-10-16T15:51:25;0.10;;;0.10;;
34567;SDS011;20806;50.746;7.116;2022-10-16T15:53:57;0.30;;;0.00;;
34567;SDS011;20806;50.746;7.116;2022-10-16T15:56:23;0.10;;;0.10;;
34567;SDS011;20806;50.746;7.116;2022-10-16T15:58:51;0.10;;;0.10;;
34567;SDS011;20806;50.746;7.116;2022-10-16T16:01:18;0.28;;;0.00;;
34567;SDS011;20806;50.746;7.116;2022-10-16T16:03:44;0.00;;;0.00;;
34567;SDS011;20806;50.746;7.116;2022-10-16T16:06:11;0.10;;;0.10;;
34567;SDS011;20806;50.746;7.116;2022-10-16T16:08:37;0.10;;;0.00;;
34567;SDS011;20806;50.746;7.116;2022-10-16T16:13:29;0.10;;;0.10;;
34567;SDS011;20806;50.746;7.116;2022-10-16T16:15:56;0.05;;;0.05;;
34567;SDS011;20806;50.746;7.116;2022-10-16T16:18:22;0.00;;;0.00;;
34567;SDS011;20806;50.746;7.116;2022-10-16T16:20:49;0.10;;;0.10;;
34567;SDS011;20806;50.746;7.116;2022-10-16T16:23:15;0.10;;;0.10;;
34567;SDS011;20806;50.746;7.116;2022-10-16T16:25:41;0.10;;;0.10;;
34567;SDS011;20806;50.746;7.116;2022-10-16T16:28:07;0.20;;;0.10;;
34567;SDS011;20806;50.746;7.116;2022-10-16T16:30:35;0.10;;;0.10;;
34567;SDS011;20806;50.746;7.116;2022-10-16T16:33:01;0.10;;;0.10;;
34567;SDS011;20806;50.746;7.116;2022-10-16T16:35:28;0.10;;;0.10;;
34567;SDS011;20806;50.746;7.116;2022-10-16T16:37:54;0.20;;;0.10;;
34567;SDS011;20806;50.746;7.116;2022-10-16T16:40:20;0.10;;;0.10;;
34567;SDS011;20806;50.746;7.116;2022-10-16T16:42:47;0.10;;;0.10;;